createdAt,value
2023-07-10T00:04:19.832Z,24.90
2023-07-10T00:19:25.504Z,24.70
2023-07-10T00:34:31.844Z,24.65
2023-07-10T00:49:44.024Z,24.58
2023-07-10T01:04:57.063Z,24.46
2023-07-10T01:20:06.908Z,24.31
2023-07-10T01:35:19.002Z,24.09
2023-07-10T01:50:25.451Z,23.83
2023-07-10T02:05:31.034Z,23.62
2023-07-10T02:20:36.698Z,23.45
2023-07-10T02:35:42.957Z,23.38
2023-07-10T02:50:48.473Z,23.10
2023-07-10T03:05:58.741Z,23.16
2023-07-10T03:21:05.127Z,23.09
2023-07-10T03:36:11.876Z,23.03
2023-07-10T03:51:18.412Z,22.71
2023-07-10T04:06:24.052Z,22.88
2023-07-10T04:21:31.709Z,22.88
2023-07-10T04:36:37.370Z,22.62
2023-07-10T04:51:42.950Z,21.06
2023-07-10T05:06:48.580Z,21.05
2023-07-10T05:21:54.235Z,20.55
2023-07-10T05:37:00.507Z,20.64
2023-07-10T05:52:07.036Z,21.16
2023-07-10T06:07:12.641Z,22.54
2023-07-10T06:22:18.522Z,22.94
2023-07-10T06:37:24.413Z,22.85
2023-07-10T06:52:30.050Z,24.28
2023-07-10T07:07:37.370Z,25.90
2023-07-10T07:22:42.875Z,26.93
2023-07-10T07:37:48.542Z,27.83
2023-07-10T07:52:55.227Z,27.98
2023-07-10T08:08:01.025Z,28.83
2023-07-10T08:23:07.589Z,28.71
2023-07-10T08:38:13.140Z,30.27
2023-07-10T08:53:26.323Z,29.20
2023-07-10T09:08:33.977Z,30.34
2023-07-10T09:23:39.513Z,30.61
2023-07-10T09:38:47.502Z,30.69
2023-07-10T09:54:01.308Z,30.82
2023-07-10T10:09:17.125Z,32.33
2023-07-10T10:24:22.968Z,33.02
2023-07-10T10:39:39.449Z,33.70
2023-07-10T10:54:52.440Z,34.05
2023-07-10T11:10:02.090Z,34.52
2023-07-10T11:25:31.989Z,34.36
2023-07-10T11:40:53.243Z,33.42
2023-07-10T11:56:01.119Z,35.31
2023-07-10T12:11:06.822Z,34.91
2023-07-10T12:26:36.506Z,34.92
2023-07-10T12:41:46.593Z,34.78
2023-07-10T12:56:55.527Z,34.07
2023-07-10T13:12:01.324Z,34.27
2023-07-10T13:27:12.252Z,34.73
2023-07-10T13:42:18.102Z,34.05
2023-07-10T13:57:28.990Z,33.78
2023-07-10T14:12:36.214Z,34.04
2023-07-10T14:27:42.291Z,33.73
2023-07-10T14:42:48.251Z,33.29
2023-07-10T14:57:53.714Z,33.36
2023-07-10T15:13:03.538Z,32.59
2023-07-10T15:28:09.153Z,32.88
2023-07-10T15:43:24.021Z,32.57
2023-07-10T15:58:31.840Z,31.54
2023-07-10T16:13:37.478Z,31.66
2023-07-10T16:28:43.603Z,31.75
2023-07-10T16:43:50.129Z,31.60
2023-07-10T16:58:56.299Z,31.19
2023-07-10T17:14:02.583Z,30.83
2023-07-10T17:29:16.890Z,30.45
2023-07-10T17:44:25.322Z,30.05
2023-07-10T17:59:30.971Z,29.70
2023-07-10T18:14:36.556Z,29.52
2023-07-10T18:29:42.342Z,29.27
2023-07-10T18:44:47.912Z,29.09
2023-07-10T18:59:53.375Z,28.82
2023-07-10T19:14:58.961Z,28.25
2023-07-10T19:30:05.093Z,27.69
2023-07-10T19:45:12.711Z,27.29
2023-07-10T20:00:22.797Z,26.75
2023-07-10T20:15:28.429Z,26.25
2023-07-10T20:30:34.024Z,26.01
2023-07-10T20:45:40.775Z,25.59
2023-07-10T21:00:48.270Z,25.33
2023-07-10T21:15:54.782Z,25.07
2023-07-10T21:31:00.326Z,24.75
2023-07-10T21:46:06.987Z,24.56
2023-07-10T22:01:14.986Z,24.39
2023-07-10T22:16:25.757Z,24.28
2023-07-10T22:31:32.758Z,24.08
2023-07-10T22:46:40.478Z,24.03
2023-07-10T23:01:48.782Z,23.84
2023-07-10T23:16:55.367Z,23.64
2023-07-10T23:32:00.818Z,23.53
2023-07-10T23:47:06.703Z,23.26
